sensor_id;sensor_type;location;lat;lon;timestamp;pressure;altitude;pressure_sealevel;temperature;humidity
80712;BME280;70078;51.596;5.678;2024-02-23T00:00:24;98720.53;;;3.62;99.36
80712;BME280;70078;51.596;5.678;2024-02-23T00:02:49;98731.59;;;3.66;99.39
80712;BME280;70078;51.596;5.678;2024-02-23T00:05:15;98752.41;;;3.83;99.29
80712;BME280;70078;51.596;5.678;2024-02-23T00:07:40;98735.59;;;3.53;99.83
80712;BME280;70078;51.596;5.678;2024-02-23T00:10:06;98726.22;;;3.51;99.44
80712;BME280;70078;51.596;5.678;2024-02-23T00:12:31;98747.72;;;3.71;99.04
80712;BME280;70078;51.596;5.678;2024-02-23T00:14:57;98744.47;;;3.60;99.57
80712;BME280;70078;51.596;5.678;2024-02-23T00:17:22;98719.88;;;3.37;98.77
80712;BME280;70078;51.596;5.678;2024-02-23T00:19:48;98764.06;;;3.66;99.39
80712;BME280;70078;51.596;5.678;2024-02-23T00:22:14;98719.03;;;3.37;99.66
80712;BME280;70078;51.596;5.678;2024-02-23T00:24:39;98723.63;;;3.43;99.48
80712;BME280;70078;51.596;5.678;2024-02-23T00:27:06;98728.88;;;3.51;99.11
80712;BME280;70078;51.596;5.678;2024-02-23T00:29:31;98730.53;;;3.44;99.35
80712;BME280;70078;51.596;5.678;2024-02-23T00:31:56;98736.72;;;3.59;100.00
80712;BME280;70078;51.596;5.678;2024-02-23T00:34:22;98786.66;;;3.92;99.45
80712;BME280;70078;51.596;5.678;2024-02-23T00:36:47;98795.63;;;3.82;100.00
80712;BME280;70078;51.596;5.678;2024-02-23T00:39:13;98751.88;;;3.65;100.00
80712;BME280;70078;51.596;5.678;2024-02-23T00:41:39;98794.38;;;4.01;99.39
80712;BME280;70078;51.596;5.678;2024-02-23T00:44:05;98775.09;;;3.93;99.31
80712;BME280;70078;51.596;5.678;2024-02-23T00:46:30;98748.00;;;3.76;98.74
80712;BME280;70078;51.596;5.678;2024-02-23T00:48:56;98767.59;;;3.81;99.02
80712;BME280;70078;51.596;5.678;2024-02-23T00:51:22;98727.69;;;3.53;99.21
80712;BME280;70078;51.596;5.678;2024-02-23T00:53:47;98694.03;;;3.32;98.57
80712;BME280;70078;51.596;5.678;2024-02-23T00:56:12;98789.25;;;4.00;98.52
80712;BME280;70078;51.596;5.678;2024-02-23T00:58:40;98769.59;;;3.79;97.90
80712;BME280;70078;51.596;5.678;2024-02-23T01:01:06;98773.06;;;3.80;97.60
80712;BME280;70078;51.596;5.678;2024-02-23T01:03:31;98799.72;;;3.93;97.96
80712;BME280;70078;51.596;5.678;2024-02-23T01:05:57;98771.94;;;3.74;98.25
80712;BME280;70078;51.596;5.678;2024-02-23T01:08:22;98777.03;;;3.76;97.86
80712;BME280;70078;51.596;5.678;2024-02-23T01:10:47;98818.59;;;4.05;97.07
80712;BME280;70078;51.596;5.678;2024-02-23T01:13:13;98834.38;;;4.13;97.32
80712;BME280;70078;51.596;5.678;2024-02-23T01:15:38;98832.75;;;4.12;97.08
80712;BME280;70078;51.596;5.678;2024-02-23T01:18:04;98815.13;;;4.04;96.03
80712;BME280;70078;51.596;5.678;2024-02-23T01:20:33;98817.28;;;4.09;96.27
80712;BME280;70078;51.596;5.678;2024-02-23T01:22:58;98825.06;;;4.02;96.21
80712;BME280;70078;51.596;5.678;2024-02-23T01:25:24;98838.63;;;4.22;95.79
80712;BME280;70078;51.596;5.678;2024-02-23T01:27:49;98779.81;;;3.82;95.84
80712;BME280;70078;51.596;5.678;2024-02-23T01:30:14;98815.66;;;4.00;96.05
80712;BME280;70078;51.596;5.678;2024-02-23T01:32:40;98840.31;;;4.15;95.01
80712;BME280;70078;51.596;5.678;2024-02-23T01:35:06;98841.56;;;4.27;94.95
80712;BME280;70078;51.596;5.678;2024-02-23T01:37:32;98802.94;;;4.03;94.49
80712;BME280;70078;51.596;5.678;2024-02-23T01:39:58;98792.34;;;3.80;95.89
80712;BME280;70078;51.596;5.678;2024-02-23T01:42:24;98839.66;;;4.13;95.60
80712;BME280;70078;51.596;5.678;2024-02-23T01:44:50;98846.06;;;4.18;94.92
80712;BME280;70078;51.596;5.678;2024-02-23T01:47:16;98802.81;;;3.97;94.25
80712;BME280;70078;51.596;5.678;2024-02-23T01:49:41;98857.47;;;4.19;95.22
80712;BME280;70078;51.596;5.678;2024-02-23T01:52:07;98827.56;;;3.96;95.64
80712;BME280;70078;51.596;5.678;2024-02-23T01:54:33;98811.41;;;3.90;95.47
80712;BME280;70078;51.596;5.678;2024-02-23T01:56:59;98861.75;;;4.20;94.82
80712;BME280;70078;51.596;5.678;2024-02-23T01:59:25;98843.78;;;4.15;94.27
80712;BME280;70078;51.596;5.678;2024-02-23T02:01:50;98842.66;;;4.10;94.57
80712;BME280;70078;51.596;5.678;2024-02-23T02:04:16;98814.56;;;3.94;94.06
80712;BME280;70078;51.596;5.678;2024-02-23T02:06:42;98783.81;;;3.70;94.72
80712;BME280;70078;51.596;5.678;2024-02-23T02:09:07;98859.91;;;4.21;94.94
80712;BME280;70078;51.596;5.678;2024-02-23T02:11:33;98814.69;;;3.93;94.11
80712;BME280;70078;51.596;5.678;2024-02-23T02:13:58;98829.84;;;3.99;94.32
80712;BME280;70078;51.596;5.678;2024-02-23T02:16:23;98804.84;;;3.86;93.57
80712;BME280;70078;51.596;5.678;2024-02-23T02:18:49;98848.13;;;4.08;93.57
80712;BME280;70078;51.596;5.678;2024-02-23T02:21:14;98824.66;;;3.82;95.40
80712;BME280;70078;51.596;5.678;2024-02-23T02:23:40;98849.09;;;4.07;94.23
80712;BME280;70078;51.596;5.678;2024-02-23T02:26:05;98868.38;;;4.16;93.94
80712;BME280;70078;51.596;5.678;2024-02-23T02:28:31;98834.13;;;4.00;93.42
80712;BME280;70078;51.596;5.678;2024-02-23T02:30:56;98847.47;;;4.06;93.24
80712;BME280;70078;51.596;5.678;2024-02-23T02:33:22;98834.22;;;3.83;94.26
80712;BME280;70078;51.596;5.678;2024-02-23T02:35:48;98877.31;;;4.07;93.23
80712;BME280;70078;51.596;5.678;2024-02-23T02:38:15;98842.81;;;3.85;93.99
80712;BME280;70078;51.596;5.678;2024-02-23T02:40:40;98877.03;;;4.02;93.10
80712;BME280;70078;51.596;5.678;2024-02-23T02:43:06;98852.31;;;3.95;92.90
80712;BME280;70078;51.596;5.678;2024-02-23T02:45:31;98844.81;;;3.75;94.21
80712;BME280;70078;51.596;5.678;2024-02-23T02:47:57;98882.31;;;4.02;93.38
80712;BME280;70078;51.596;5.678;2024-02-23T02:50:22;98855.00;;;3.86;93.72
80712;BME280;70078;51.596;5.678;2024-02-23T02:52:48;98901.03;;;4.15;92.78
80712;BME280;70078;51.596;5.678;2024-02-23T02:55:13;98849.94;;;3.69;93.83
80712;BME280;70078;51.596;5.678;2024-02-23T02:57:39;98855.06;;;3.70;94.32
80712;BME280;70078;51.596;5.678;2024-02-23T03:00:05;98912.00;;;4.04;94.19
80712;BME280;70078;51.596;5.678;2024-02-23T03:02:31;98847.00;;;3.72;94.00
80712;BME280;70078;51.596;5.678;2024-02-23T03:04:57;98882.69;;;3.90;92.95
80712;BME280;70078;51.596;5.678;2024-02-23T03:07:22;98866.09;;;3.74;94.19
80712;BME280;70078;51.596;5.678;2024-02-23T03:09:47;98870.03;;;3.86;93.92
80712;BME280;70078;51.596;5.678;2024-02-23T03:12:14;98861.47;;;3.76;93.61
80712;BME280;70078;51.596;5.678;2024-02-23T03:14:39;98887.31;;;3.88;94.03
80712;BME280;70078;51.596;5.678;2024-02-23T03:17:07;98894.06;;;3.91;93.56
80712;BME280;70078;51.596;5.678;2024-02-23T03:19:32;98903.72;;;4.07;93.66
80712;BME280;70078;51.596;5.678;2024-02-23T03:21:58;98869.91;;;3.71;94.33
80712;BME280;70078;51.596;5.678;2024-02-23T03:24:23;98918.63;;;3.92;94.94
80712;BME280;70078;51.596;5.678;2024-02-23T03:26:49;98932.47;;;4.02;94.48
80712;BME280;70078;51.596;5.678;2024-02-23T03:29:14;98923.25;;;3.98;94.91
80712;BME280;70078;51.596;5.678;2024-02-23T03:31:39;98917.31;;;3.96;94.78
80712;BME280;70078;51.596;5.678;2024-02-23T03:34:05;98878.81;;;3.70;93.70
80712;BME280;70078;51.596;5.678;2024-02-23T03:36:30;98858.72;;;3.61;93.97
80712;BME280;70078;51.596;5.678;2024-02-23T03:38:55;98909.91;;;3.91;93.74
80712;BME280;70078;51.596;5.678;2024-02-23T03:41:21;98872.56;;;3.71;93.34
80712;BME280;70078;51.596;5.678;2024-02-23T03:43:46;98883.09;;;3.71;94.37
80712;BME280;70078;51.596;5.678;2024-02-23T03:46:11;98925.19;;;4.04;94.04
80712;BME280;70078;51.596;5.678;2024-02-23T03:48:37;98832.38;;;3.53;92.98
80712;BME280;70078;51.596;5.678;2024-02-23T03:51:05;98923.56;;;4.03;94.08
80712;BME280;70078;51.596;5.678;2024-02-23T03:53:31;98886.53;;;3.80;94.44
80712;BME280;70078;51.596;5.678;2024-02-23T03:55:57;98886.72;;;3.78;94.10
80712;BME280;70078;51.596;5.678;2024-02-23T03:58:22;98914.22;;;3.84;93.61
80712;BME280;70078;51.596;5.678;2024-02-23T04:00:47;98911.03;;;3.97;93.98
80712;BME280;70078;51.596;5.678;2024-02-23T04:03:13;98923.72;;;4.01;94.42
80712;BME280;70078;51.596;5.678;2024-02-23T04:05:38;98868.94;;;3.64;94.56
80712;BME280;70078;51.596;5.678;2024-02-23T04:08:04;98918.13;;;3.96;94.42
80712;BME280;70078;51.596;5.678;2024-02-23T04:10:29;98900.88;;;3.77;94.78
80712;BME280;70078;51.596;5.678;2024-02-23T04:12:54;98906.47;;;3.82;94.72
80712;BME280;70078;51.596;5.678;2024-02-23T04:15:20;98884.41;;;3.75;93.95
80712;BME280;70078;51.596;5.678;2024-02-23T04:17:46;98929.47;;;4.05;94.57
80712;BME280;70078;51.596;5.678;2024-02-23T04:20:11;98943.28;;;4.15;94.04
80712;BME280;70078;51.596;5.678;2024-02-23T04:22:37;98915.31;;;3.98;93.56
80712;BME280;70078;51.596;5.678;2024-02-23T04:25:03;98894.06;;;3.91;92.72
80712;BME280;70078;51.596;5.678;2024-02-23T04:27:30;98961.28;;;4.20;92.72
80712;BME280;70078;51.596;5.678;2024-02-23T04:29:55;98941.03;;;4.04;92.62
80712;BME280;70078;51.596;5.678;2024-02-23T04:32:20;98933.84;;;3.89;93.56
80712;BME280;70078;51.596;5.678;2024-02-23T04:34:46;98885.13;;;3.53;94.65
80712;BME280;70078;51.596;5.678;2024-02-23T04:37:11;98959.88;;;4.01;93.04
80712;BME280;70078;51.596;5.678;2024-02-23T04:39:36;98963.97;;;4.03;94.74
80712;BME280;70078;51.596;5.678;2024-02-23T04:42:03;98980.91;;;4.25;93.18
80712;BME280;70078;51.596;5.678;2024-02-23T04:44:29;98945.00;;;4.00;93.44
80712;BME280;70078;51.596;5.678;2024-02-23T04:46:54;98961.28;;;4.20;92.95
80712;BME280;70078;51.596;5.678;2024-02-23T04:49:20;98977.84;;;4.36;93.00
80712;BME280;70078;51.596;5.678;2024-02-23T04:51:45;98926.88;;;3.97;94.62
80712;BME280;70078;51.596;5.678;2024-02-23T04:54:11;98960.75;;;4.24;93.11
80712;BME280;70078;51.596;5.678;2024-02-23T04:56:36;98963.25;;;4.17;93.48
80712;BME280;70078;51.596;5.678;2024-02-23T04:59:01;98944.47;;;4.12;92.71
80712;BME280;70078;51.596;5.678;2024-02-23T05:01:27;98948.25;;;4.18;93.18
80712;BME280;70078;51.596;5.678;2024-02-23T05:03:52;98946.47;;;4.10;93.24
80712;BME280;70078;51.596;5.678;2024-02-23T05:06:18;98936.38;;;4.14;92.38
80712;BME280;70078;51.596;5.678;2024-02-23T05:08:43;98959.72;;;4.33;92.29
80712;BME280;70078;51.596;5.678;2024-02-23T05:11:09;98935.69;;;4.20;92.58
80712;BME280;70078;51.596;5.678;2024-02-23T05:13:35;98956.31;;;4.25;92.81
80712;BME280;70078;51.596;5.678;2024-02-23T05:16:00;98956.34;;;4.48;92.45
80712;BME280;70078;51.596;5.678;2024-02-23T05:18:25;98973.16;;;4.55;91.32
80712;BME280;70078;51.596;5.678;2024-02-23T05:20:51;98979.44;;;4.54;92.06
80712;BME280;70078;51.596;5.678;2024-02-23T05:23:16;98964.28;;;4.48;91.39
80712;BME280;70078;51.596;5.678;2024-02-23T05:25:42;98951.72;;;4.50;92.05
80712;BME280;70078;51.596;5.678;2024-02-23T05:28:07;98947.75;;;4.45;91.52
80712;BME280;70078;51.596;5.678;2024-02-23T05:30:33;98924.38;;;4.34;91.90
80712;BME280;70078;51.596;5.678;2024-02-23T05:32:58;98951.34;;;4.53;92.88
80712;BME280;70078;51.596;5.678;2024-02-23T05:35:24;98957.19;;;4.71;91.69
80712;BME280;70078;51.596;5.678;2024-02-23T05:37:51;98975.00;;;4.77;91.49
80712;BME280;70078;51.596;5.678;2024-02-23T05:40:16;98981.94;;;4.78;92.53
80712;BME280;70078;51.596;5.678;2024-02-23T05:42:42;98965.81;;;4.65;91.86
80712;BME280;70078;51.596;5.678;2024-02-23T05:45:08;98970.59;;;4.69;92.52
80712;BME280;70078;51.596;5.678;2024-02-23T05:47:37;98981.56;;;4.81;91.82
80712;BME280;70078;51.596;5.678;2024-02-23T05:50:03;98954.88;;;4.76;91.34
80712;BME280;70078;51.596;5.678;2024-02-23T05:52:29;98970.41;;;4.94;91.00
80712;BME280;70078;51.596;5.678;2024-02-23T05:54:55;98954.91;;;4.91;90.13
80712;BME280;70078;51.596;5.678;2024-02-23T05:57:21;98932.72;;;4.77;89.24
80712;BME280;70078;51.596;5.678;2024-02-23T05:59:46;98918.81;;;4.75;87.86
80712;BME280;70078;51.596;5.678;2024-02-23T06:02:12;98939.88;;;4.91;87.98
80712;BME280;70078;51.596;5.678;2024-02-23T06:04:37;98946.97;;;4.91;88.47
80712;BME280;70078;51.596;5.678;2024-02-23T06:07:03;98974.13;;;5.08;88.47
80712;BME280;70078;51.596;5.678;2024-02-23T06:09:28;98936.22;;;4.92;88.61
80712;BME280;70078;51.596;5.678;2024-02-23T06:11:53;98902.97;;;4.75;88.50
80712;BME280;70078;51.596;5.678;2024-02-23T06:14:18;98971.81;;;5.05;89.80
80712;BME280;70078;51.596;5.678;2024-02-23T06:16:44;98882.59;;;4.61;88.65
80712;BME280;70078;51.596;5.678;2024-02-23T06:19:09;98935.88;;;4.95;87.47
80712;BME280;70078;51.596;5.678;2024-02-23T06:21:34;98954.56;;;4.94;88.15
80712;BME280;70078;51.596;5.678;2024-02-23T06:24:00;98942.69;;;4.90;88.35
80712;BME280;70078;51.596;5.678;2024-02-23T06:26:25;98925.66;;;4.92;87.30
80712;BME280;70078;51.596;5.678;2024-02-23T06:28:51;98964.19;;;5.10;88.59
80712;BME280;70078;51.596;5.678;2024-02-23T06:31:16;98951.47;;;5.05;87.45
80712;BME280;70078;51.596;5.678;2024-02-23T06:33:42;98915.41;;;4.89;85.62
80712;BME280;70078;51.596;5.678;2024-02-23T06:36:09;98961.47;;;5.18;85.22
80712;BME280;70078;51.596;5.678;2024-02-23T06:38:34;98928.25;;;5.00;85.47
80712;BME280;70078;51.596;5.678;2024-02-23T06:41:00;98923.66;;;4.94;85.38
80712;BME280;70078;51.596;5.678;2024-02-23T06:43:25;98891.13;;;4.71;85.60
80712;BME280;70078;51.596;5.678;2024-02-23T06:45:51;98963.81;;;5.13;86.33
80712;BME280;70078;51.596;5.678;2024-02-23T06:48:17;98955.94;;;5.27;84.85
80712;BME280;70078;51.596;5.678;2024-02-23T06:50:42;98966.41;;;5.21;86.42
80712;BME280;70078;51.596;5.678;2024-02-23T06:53:07;98888.78;;;4.76;87.00
80712;BME280;70078;51.596;5.678;2024-02-23T06:55:34;98934.28;;;5.09;84.95
80712;BME280;70078;51.596;5.678;2024-02-23T06:57:59;98966.25;;;5.22;85.28
80712;BME280;70078;51.596;5.678;2024-02-23T07:00:25;98942.59;;;5.21;84.55
80712;BME280;70078;51.596;5.678;2024-02-23T07:02:50;98962.69;;;5.30;84.87
80712;BME280;70078;51.596;5.678;2024-02-23T07:05:16;98915.84;;;5.01;84.27
80712;BME280;70078;51.596;5.678;2024-02-23T07:07:41;98946.97;;;5.28;83.62
80712;BME280;70078;51.596;5.678;2024-02-23T07:10:08;98952.28;;;5.28;83.31
80712;BME280;70078;51.596;5.678;2024-02-23T07:12:33;98934.09;;;5.11;83.38
80712;BME280;70078;51.596;5.678;2024-02-23T07:14:59;98930.75;;;5.17;84.03
80712;BME280;70078;51.596;5.678;2024-02-23T07:17:24;98921.88;;;5.10;83.10
80712;BME280;70078;51.596;5.678;2024-02-23T07:19:50;98956.75;;;5.28;83.57
80712;BME280;70078;51.596;5.678;2024-02-23T07:22:18;98962.84;;;5.28;84.80
80712;BME280;70078;51.596;5.678;2024-02-23T07:24:45;98951.38;;;5.21;84.43
80712;BME280;70078;51.596;5.678;2024-02-23T07:27:11;98935.84;;;5.18;84.28
80712;BME280;70078;51.596;5.678;2024-02-23T07:29:36;98938.97;;;5.22;84.28
80712;BME280;70078;51.596;5.678;2024-02-23T07:32:01;98956.25;;;5.47;82.25
80712;BME280;70078;51.596;5.678;2024-02-23T07:34:27;98961.53;;;5.47;81.93
80712;BME280;70078;51.596;5.678;2024-02-23T07:36:53;98969.56;;;5.39;83.96
80712;BME280;70078;51.596;5.678;2024-02-23T07:39:18;98977.44;;;5.47;82.69
80712;BME280;70078;51.596;5.678;2024-02-23T07:41:44;98937.25;;;5.29;83.76
80712;BME280;70078;51.596;5.678;2024-02-23T07:44:09;98950.75;;;5.34;83.71
80712;BME280;70078;51.596;5.678;2024-02-23T07:46:35;98951.38;;;5.36;83.31
80712;BME280;70078;51.596;5.678;2024-02-23T07:49:00;98935.06;;;5.33;83.48
80712;BME280;70078;51.596;5.678;2024-02-23T07:51:25;98962.56;;;5.46;84.06
80712;BME280;70078;51.596;5.678;2024-02-23T07:53:51;98942.50;;;5.52;82.94
80712;BME280;70078;51.596;5.678;2024-02-23T07:56:16;98942.56;;;5.58;82.00
80712;BME280;70078;51.596;5.678;2024-02-23T07:58:42;98960.28;;;5.73;82.13
80712;BME280;70078;51.596;5.678;2024-02-23T08:01:07;98938.28;;;5.57;82.67
80712;BME280;70078;51.596;5.678;2024-02-23T08:03:32;98927.97;;;5.63;81.82
80712;BME280;70078;51.596;5.678;2024-02-23T08:05:58;98952.00;;;5.76;81.30
80712;BME280;70078;51.596;5.678;2024-02-23T08:08:23;98957.75;;;5.79;80.89
80712;BME280;70078;51.596;5.678;2024-02-23T08:10:50;98945.69;;;5.77;81.86
80712;BME280;70078;51.596;5.678;2024-02-23T08:13:16;98970.38;;;5.92;79.63
80712;BME280;70078;51.596;5.678;2024-02-23T08:15:43;98954.38;;;5.85;80.39
80712;BME280;70078;51.596;5.678;2024-02-23T08:18:08;98942.31;;;5.83;80.32
80712;BME280;70078;51.596;5.678;2024-02-23T08:20:33;98920.78;;;5.71;79.76
80712;BME280;70078;51.596;5.678;2024-02-23T08:22:59;98934.28;;;5.76;81.23
80712;BME280;70078;51.596;5.678;2024-02-23T08:25:24;98932.47;;;5.77;80.87
80712;BME280;70078;51.596;5.678;2024-02-23T08:27:49;98956.13;;;5.93;81.68
80712;BME280;70078;51.596;5.678;2024-02-23T08:30:15;98930.09;;;5.82;80.98
80712;BME280;70078;51.596;5.678;2024-02-23T08:32:40;98956.66;;;6.03;80.44
80712;BME280;70078;51.596;5.678;2024-02-23T08:35:06;98930.09;;;5.82;80.61
80712;BME280;70078;51.596;5.678;2024-02-23T08:37:32;98911.81;;;5.72;81.57
80712;BME280;70078;51.596;5.678;2024-02-23T08:39:57;98914.28;;;5.74;81.96
80712;BME280;70078;51.596;5.678;2024-02-23T08:42:23;98896.84;;;5.79;81.65
80712;BME280;70078;51.596;5.678;2024-02-23T08:44:48;98916.69;;;5.98;79.53
80712;BME280;70078;51.596;5.678;2024-02-23T08:47:13;98897.13;;;5.84;80.62
80712;BME280;70078;51.596;5.678;2024-02-23T08:49:39;98915.50;;;6.01;79.40
80712;BME280;70078;51.596;5.678;2024-02-23T08:52:04;98913.38;;;5.96;80.51
80712;BME280;70078;51.596;5.678;2024-02-23T08:54:30;98948.09;;;6.16;81.30
80712;BME280;70078;51.596;5.678;2024-02-23T08:56:55;98919.25;;;6.06;79.82
80712;BME280;70078;51.596;5.678;2024-02-23T08:59:21;98947.69;;;6.34;79.27
80712;BME280;70078;51.596;5.678;2024-02-23T09:01:46;98951.22;;;6.41;79.30
80712;BME280;70078;51.596;5.678;2024-02-23T09:04:13;98888.09;;;6.08;79.67
80712;BME280;70078;51.596;5.678;2024-02-23T09:06:38;98900.78;;;6.13;79.56
80712;BME280;70078;51.596;5.678;2024-02-23T09:09:04;98887.81;;;6.03;80.74
80712;BME280;70078;51.596;5.678;2024-02-23T09:11:29;98914.53;;;6.23;81.04
80712;BME280;70078;51.596;5.678;2024-02-23T09:13:55;98890.00;;;6.15;81.26
80712;BME280;70078;51.596;5.678;2024-02-23T09:16:20;98939.69;;;6.49;79.62
80712;BME280;70078;51.596;5.678;2024-02-23T09:18:48;98922.06;;;6.41;80.16
80712;BME280;70078;51.596;5.678;2024-02-23T09:21:14;98933.84;;;6.53;79.55
80712;BME280;70078;51.596;5.678;2024-02-23T09:23:39;98917.97;;;6.38;78.83
80712;BME280;70078;51.596;5.678;2024-02-23T09:26:09;98924.44;;;6.51;78.79
80712;BME280;70078;51.596;5.678;2024-02-23T09:28:36;98910.41;;;6.35;80.59
80712;BME280;70078;51.596;5.678;2024-02-23T09:31:01;98934.84;;;6.52;79.95
80712;BME280;70078;51.596;5.678;2024-02-23T09:33:28;98918.13;;;6.52;79.03
80712;BME280;70078;51.596;5.678;2024-02-23T09:35:54;98911.75;;;6.46;80.01
80712;BME280;70078;51.596;5.678;2024-02-23T09:38:19;98947.59;;;6.63;80.37
80712;BME280;70078;51.596;5.678;2024-02-23T09:40:45;98945.22;;;6.68;80.53
80712;BME280;70078;51.596;5.678;2024-02-23T09:43:12;98909.91;;;6.47;80.53
80712;BME280;70078;51.596;5.678;2024-02-23T09:45:37;98909.53;;;6.50;79.57
80712;BME280;70078;51.596;5.678;2024-02-23T09:48:03;98943.84;;;6.73;80.64
80712;BME280;70078;51.596;5.678;2024-02-23T09:50:30;98922.41;;;6.53;81.14
80712;BME280;70078;51.596;5.678;2024-02-23T09:52:58;98943.19;;;6.71;80.55
80712;BME280;70078;51.596;5.678;2024-02-23T09:55:24;98972.78;;;6.89;80.00
80712;BME280;70078;51.596;5.678;2024-02-23T09:57:55;98934.88;;;6.74;79.76
80712;BME280;70078;51.596;5.678;2024-02-23T10:00:23;98921.34;;;6.68;78.23
80712;BME280;70078;51.596;5.678;2024-02-23T10:02:49;98953.06;;;6.77;78.20
80712;BME280;70078;51.596;5.678;2024-02-23T10:05:15;98956.03;;;6.67;79.94
80712;BME280;70078;51.596;5.678;2024-02-23T10:07:42;98972.25;;;6.79;79.63
80712;BME280;70078;51.596;5.678;2024-02-23T10:10:08;98971.75;;;6.68;79.49
80712;BME280;70078;51.596;5.678;2024-02-23T10:12:36;98979.41;;;6.63;80.13
80712;BME280;70078;51.596;5.678;2024-02-23T10:15:02;98990.94;;;6.71;80.22
80712;BME280;70078;51.596;5.678;2024-02-23T10:17:30;98986.38;;;6.64;80.53
80712;BME280;70078;51.596;5.678;2024-02-23T10:19:55;98971.78;;;6.54;81.18
80712;BME280;70078;51.596;5.678;2024-02-23T10:22:22;98994.78;;;6.68;81.91
80712;BME280;70078;51.596;5.678;2024-02-23T10:24:53;98999.00;;;6.62;80.98
80712;BME280;70078;51.596;5.678;2024-02-23T10:27:18;99010.06;;;6.66;80.86
80712;BME280;70078;51.596;5.678;2024-02-23T10:29:44;99016.69;;;6.77;80.61
80712;BME280;70078;51.596;5.678;2024-02-23T10:32:14;98995.91;;;6.59;81.95
80712;BME280;70078;51.596;5.678;2024-02-23T10:34:42;99019.91;;;6.72;82.77
80712;BME280;70078;51.596;5.678;2024-02-23T10:37:07;99022.00;;;6.77;81.81
80712;BME280;70078;51.596;5.678;2024-02-23T10:39:36;99008.41;;;6.65;80.83
80712;BME280;70078;51.596;5.678;2024-02-23T10:42:03;99021.63;;;6.80;79.95
80712;BME280;70078;51.596;5.678;2024-02-23T10:44:30;99032.88;;;6.82;79.81
80712;BME280;70078;51.596;5.678;2024-02-23T10:46:58;99027.69;;;6.74;81.05
80712;BME280;70078;51.596;5.678;2024-02-23T10:49:24;99016.19;;;6.66;81.59
80712;BME280;70078;51.596;5.678;2024-02-23T10:51:51;99035.34;;;6.83;82.08
80712;BME280;70078;51.596;5.678;2024-02-23T10:54:19;99036.03;;;6.92;79.56
80712;BME280;70078;51.596;5.678;2024-02-23T10:56:50;99018.03;;;6.87;79.93
80712;BME280;70078;51.596;5.678;2024-02-23T10:59:19;99030.53;;;6.93;79.85
80712;BME280;70078;51.596;5.678;2024-02-23T11:01:51;99044.56;;;6.87;80.30
80712;BME280;70078;51.596;5.678;2024-02-23T11:04:19;99043.25;;;6.98;80.94
80712;BME280;70078;51.596;5.678;2024-02-23T11:06:51;99047.47;;;6.92;81.80
80712;BME280;70078;51.596;5.678;2024-02-23T11:09:21;99024.53;;;6.85;80.90
80712;BME280;70078;51.596;5.678;2024-02-23T11:11:56;99052.66;;;7.01;80.92
80712;BME280;70078;51.596;5.678;2024-02-23T11:14:35;99044.28;;;6.97;81.09
80712;BME280;70078;51.596;5.678;2024-02-23T11:17:01;99022.16;;;6.90;80.33
80712;BME280;70078;51.596;5.678;2024-02-23T11:19:34;99027.53;;;6.97;79.97
80712;BME280;70078;51.596;5.678;2024-02-23T11:22:01;99046.63;;;7.07;81.09
80712;BME280;70078;51.596;5.678;2024-02-23T11:24:30;99010.53;;;6.91;79.41
80712;BME280;70078;51.596;5.678;2024-02-23T11:26:59;99037.72;;;7.14;80.16
80712;BME280;70078;51.596;5.678;2024-02-23T11:29:26;99036.00;;;7.07;80.01
80712;BME280;70078;51.596;5.678;2024-02-23T11:31:53;99045.69;;;7.14;80.02
80712;BME280;70078;51.596;5.678;2024-02-23T11:34:26;99048.13;;;7.16;80.43
80712;BME280;70078;51.596;5.678;2024-02-23T11:36:52;99027.22;;;7.06;79.94
80712;BME280;70078;51.596;5.678;2024-02-23T11:39:19;99017.84;;;7.10;78.53
80712;BME280;70078;51.596;5.678;2024-02-23T11:41:44;99047.25;;;7.30;78.58
80712;BME280;70078;51.596;5.678;2024-02-23T11:44:12;99057.31;;;7.35;79.88
80712;BME280;70078;51.596;5.678;2024-02-23T11:46:38;99009.34;;;7.15;79.77
80712;BME280;70078;51.596;5.678;2024-02-23T11:49:03;99056.56;;;7.41;80.19
80712;BME280;70078;51.596;5.678;2024-02-23T11:51:29;99050.03;;;7.43;79.80
80712;BME280;70078;51.596;5.678;2024-02-23T11:53:57;99022.56;;;7.30;80.50
80712;BME280;70078;51.596;5.678;2024-02-23T11:56:23;99036.09;;;7.63;79.74
80712;BME280;70078;51.596;5.678;2024-02-23T11:58:49;99054.88;;;7.83;77.56
80712;BME280;70078;51.596;5.678;2024-02-23T12:01:14;99032.88;;;7.67;78.92
80712;BME280;70078;51.596;5.678;2024-02-23T12:03:40;99037.63;;;7.72;78.90
80712;BME280;70078;51.596;5.678;2024-02-23T12:06:07;99056.13;;;7.87;78.89
80712;BME280;70078;51.596;5.678;2024-02-23T12:08:33;99035.16;;;7.70;78.43
80712;BME280;70078;51.596;5.678;2024-02-23T12:11:05;99050.22;;;7.91;77.30
80712;BME280;70078;51.596;5.678;2024-02-23T12:13:32;99038.31;;;7.81;77.61
80712;BME280;70078;51.596;5.678;2024-02-23T12:15:58;99011.03;;;7.65;78.67
80712;BME280;70078;51.596;5.678;2024-02-23T12:18:23;99017.34;;;7.64;76.68
80712;BME280;70078;51.596;5.678;2024-02-23T12:20:51;99035.19;;;7.77;77.40
80712;BME280;70078;51.596;5.678;2024-02-23T12:23:16;99033.50;;;7.69;76.33
80712;BME280;70078;51.596;5.678;2024-02-23T12:25:57;99042.28;;;7.70;77.54
80712;BME280;70078;51.596;5.678;2024-02-23T12:28:24;99058.53;;;7.82;78.03
80712;BME280;70078;51.596;5.678;2024-02-23T12:30:59;99048.69;;;7.75;77.20
80712;BME280;70078;51.596;5.678;2024-02-23T12:33:27;99060.31;;;7.74;77.76
80712;BME280;70078;51.596;5.678;2024-02-23T12:35:54;99052.97;;;7.76;78.26
80712;BME280;70078;51.596;5.678;2024-02-23T12:38:20;99032.88;;;7.67;78.96
80712;BME280;70078;51.596;5.678;2024-02-23T12:40:46;99031.53;;;7.78;78.84
80712;BME280;70078;51.596;5.678;2024-02-23T12:43:11;99052.84;;;7.85;78.88
80712;BME280;70078;51.596;5.678;2024-02-23T12:45:36;99039.81;;;7.90;77.14
80712;BME280;70078;51.596;5.678;2024-02-23T12:48:02;99054.34;;;7.94;78.04
80712;BME280;70078;51.596;5.678;2024-02-23T12:50:29;99053.13;;;7.96;77.06
80712;BME280;70078;51.596;5.678;2024-02-23T12:52:55;99040.28;;;8.00;78.20
80712;BME280;70078;51.596;5.678;2024-02-23T12:55:20;99059.31;;;8.31;76.90
80712;BME280;70078;51.596;5.678;2024-02-23T12:57:46;99049.53;;;8.39;76.56
80712;BME280;70078;51.596;5.678;2024-02-23T13:00:11;99052.44;;;8.44;75.41
80712;BME280;70078;51.596;5.678;2024-02-23T13:02:37;99018.94;;;8.21;74.43